sensor_id;sensor_type;location;lat;lon;timestamp;pressure;altitude;pressure_sealevel;temperature;humidity
37078;BME280;22989;55.998;37.212;2023-02-12T00:01:22;-11298.94;;;-145.39;64.30
37078;BME280;22989;55.998;37.212;2023-02-12T00:03:48;-11298.94;;;-145.39;64.19
37078;BME280;22989;55.998;37.212;2023-02-12T00:06:14;-11298.94;;;-145.39;64.19
37078;BME280;22989;55.998;37.212;2023-02-12T00:08:40;-11298.94;;;-145.39;64.26
37078;BME280;22989;55.998;37.212;2023-02-12T00:11:10;-11298.94;;;-145.39;64.24
37078;BME280;22989;55.998;37.212;2023-02-12T00:13:36;-11298.94;;;-145.39;63.86
37078;BME280;22989;55.998;37.212;2023-02-12T00:16:07;-11298.94;;;-145.39;63.71
37078;BME280;22989;55.998;37.212;2023-02-12T00:18:33;-11298.94;;;-145.39;64.18
37078;BME280;22989;55.998;37.212;2023-02-12T00:20:59;-11298.94;;;-145.39;63.63
37078;BME280;22989;55.998;37.212;2023-02-12T00:23:25;-11298.94;;;-145.39;63.75
37078;BME280;22989;55.998;37.212;2023-02-12T00:25:51;-11298.94;;;-145.39;64.00
37078;BME280;22989;55.998;37.212;2023-02-12T00:28:16;-11298.94;;;-145.39;63.75
37078;BME280;22989;55.998;37.212;2023-02-12T00:30:42;-11298.94;;;-145.39;63.93
37078;BME280;22989;55.998;37.212;2023-02-12T00:33:08;-11298.94;;;-145.39;63.66
37078;BME280;22989;55.998;37.212;2023-02-12T00:35:34;-11298.94;;;-145.39;63.70
37078;BME280;22989;55.998;37.212;2023-02-12T00:38:00;-11298.94;;;-145.39;63.90
37078;BME280;22989;55.998;37.212;2023-02-12T00:40:26;-11298.94;;;-145.39;64.00
37078;BME280;22989;55.998;37.212;2023-02-12T00:42:51;-11298.94;;;-145.39;64.23
37078;BME280;22989;55.998;37.212;2023-02-12T00:45:17;-11298.94;;;-145.39;64.13
37078;BME280;22989;55.998;37.212;2023-02-12T00:47:43;-11298.94;;;-145.39;64.20
37078;BME280;22989;55.998;37.212;2023-02-12T00:50:09;-11298.94;;;-145.39;64.52
37078;BME280;22989;55.998;37.212;2023-02-12T00:52:35;-11298.94;;;-145.39;64.19
37078;BME280;22989;55.998;37.212;2023-02-12T00:55:01;-11298.94;;;-145.39;64.24
37078;BME280;22989;55.998;37.212;2023-02-12T00:57:27;-11298.94;;;-145.39;64.26
37078;BME280;22989;55.998;37.212;2023-02-12T00:59:52;-11298.94;;;-145.39;64.50
37078;BME280;22989;55.998;37.212;2023-02-12T01:02:18;-11298.94;;;-145.39;64.31
37078;BME280;22989;55.998;37.212;2023-02-12T01:04:45;-11298.94;;;-145.39;64.35
37078;BME280;22989;55.998;37.212;2023-02-12T01:07:10;-11298.94;;;-145.39;64.18
37078;BME280;22989;55.998;37.212;2023-02-12T01:09:36;-11298.94;;;-145.39;64.13
37078;BME280;22989;55.998;37.212;2023-02-12T01:12:02;-11298.94;;;-145.39;64.16
37078;BME280;22989;55.998;37.212;2023-02-12T01:14:27;-11298.94;;;-145.39;64.26
37078;BME280;22989;55.998;37.212;2023-02-12T01:16:53;-11298.94;;;-145.39;64.43
37078;BME280;22989;55.998;37.212;2023-02-12T01:19:18;-11298.94;;;-145.39;64.38
37078;BME280;22989;55.998;37.212;2023-02-12T01:21:45;-11298.94;;;-145.39;64.47
37078;BME280;22989;55.998;37.212;2023-02-12T01:24:10;-11298.94;;;-145.39;64.62
37078;BME280;22989;55.998;37.212;2023-02-12T01:26:36;-11298.94;;;-145.39;64.31
37078;BME280;22989;55.998;37.212;2023-02-12T01:29:04;-11298.94;;;-145.39;64.51
37078;BME280;22989;55.998;37.212;2023-02-12T01:31:35;-11298.94;;;-145.39;64.60
37078;BME280;22989;55.998;37.212;2023-02-12T01:34:02;-11298.94;;;-145.39;64.55
37078;BME280;22989;55.998;37.212;2023-02-12T01:36:29;-11298.94;;;-145.39;64.55
37078;BME280;22989;55.998;37.212;2023-02-12T01:38:55;-11298.94;;;-145.39;64.39
37078;BME280;22989;55.998;37.212;2023-02-12T01:41:25;-11298.94;;;-145.39;64.15
37078;BME280;22989;55.998;37.212;2023-02-12T01:44:18;-11298.94;;;-145.39;64.19
37078;BME280;22989;55.998;37.212;2023-02-12T01:46:47;-11298.94;;;-145.39;64.29
37078;BME280;22989;55.998;37.212;2023-02-12T01:51:44;-11298.94;;;-145.39;64.32
37078;BME280;22989;55.998;37.212;2023-02-12T01:54:12;-11298.94;;;-145.39;64.48
37078;BME280;22989;55.998;37.212;2023-02-12T01:56:41;-11298.94;;;-145.39;64.06
37078;BME280;22989;55.998;37.212;2023-02-12T01:59:07;-11298.94;;;-145.39;64.22
37078;BME280;22989;55.998;37.212;2023-02-12T02:01:33;-11298.94;;;-145.39;64.26
37078;BME280;22989;55.998;37.212;2023-02-12T02:04:11;-11298.94;;;-145.39;64.30
37078;BME280;22989;55.998;37.212;2023-02-12T02:06:53;-11298.94;;;-145.39;64.00
37078;BME280;22989;55.998;37.212;2023-02-12T02:09:21;-11298.94;;;-145.39;64.09
37078;BME280;22989;55.998;37.212;2023-02-12T02:11:47;-11298.94;;;-145.39;64.18
37078;BME280;22989;55.998;37.212;2023-02-12T02:14:31;-11298.94;;;-145.39;63.94
37078;BME280;22989;55.998;37.212;2023-02-12T02:36:20;-11298.94;;;-145.39;63.91
37078;BME280;22989;55.998;37.212;2023-02-12T02:41:32;-11298.94;;;-145.39;64.52
37078;BME280;22989;55.998;37.212;2023-02-12T02:44:04;-11298.94;;;-145.39;64.37
37078;BME280;22989;55.998;37.212;2023-02-12T02:46:40;-11298.94;;;-145.39;64.60
37078;BME280;22989;55.998;37.212;2023-02-12T02:49:12;-11298.94;;;-145.39;64.78
37078;BME280;22989;55.998;37.212;2023-02-12T02:51:42;-11298.94;;;-145.39;64.70
37078;BME280;22989;55.998;37.212;2023-02-12T02:54:25;-11298.94;;;-145.39;64.77
37078;BME280;22989;55.998;37.212;2023-02-12T02:57:07;-11298.94;;;-145.39;64.56
37078;BME280;22989;55.998;37.212;2023-02-12T02:59:37;-11298.94;;;-145.39;64.58
37078;BME280;22989;55.998;37.212;2023-02-12T03:02:13;-11298.94;;;-145.39;64.72
37078;BME280;22989;55.998;37.212;2023-02-12T03:07:56;-11298.94;;;-145.39;64.59
37078;BME280;22989;55.998;37.212;2023-02-12T03:10:31;-11298.94;;;-145.39;64.51
37078;BME280;22989;55.998;37.212;2023-02-12T03:13:11;-11298.94;;;-145.39;64.55
37078;BME280;22989;55.998;37.212;2023-02-12T03:15:46;-11298.94;;;-145.39;64.58
37078;BME280;22989;55.998;37.212;2023-02-12T03:18:19;-11298.94;;;-145.39;64.31
37078;BME280;22989;55.998;37.212;2023-02-12T03:20:54;-11298.94;;;-145.39;64.20
37078;BME280;22989;55.998;37.212;2023-02-12T03:23:26;-11298.94;;;-145.39;64.10
37078;BME280;22989;55.998;37.212;2023-02-12T03:25:58;-11298.94;;;-145.39;64.05
37078;BME280;22989;55.998;37.212;2023-02-12T03:28:34;-11298.94;;;-145.39;63.95
37078;BME280;22989;55.998;37.212;2023-02-12T03:33:43;-11298.94;;;-145.39;63.59
37078;BME280;22989;55.998;37.212;2023-02-12T03:39:10;-11298.94;;;-145.39;63.20
37078;BME280;22989;55.998;37.212;2023-02-12T03:41:50;-11298.94;;;-145.39;63.31
37078;BME280;22989;55.998;37.212;2023-02-12T03:44:45;-11298.94;;;-145.39;62.94
37078;BME280;22989;55.998;37.212;2023-02-12T03:52:09;-11298.94;;;-145.39;62.77
37078;BME280;22989;55.998;37.212;2023-02-12T03:54:34;-11298.94;;;-145.39;62.58
37078;BME280;22989;55.998;37.212;2023-02-12T03:57:05;-11298.94;;;-145.39;62.65
37078;BME280;22989;55.998;37.212;2023-02-12T03:59:34;-11298.94;;;-145.39;62.27
37078;BME280;22989;55.998;37.212;2023-02-12T04:02:00;-11298.94;;;-145.39;62.36
37078;BME280;22989;55.998;37.212;2023-02-12T04:04:26;-11298.94;;;-145.39;61.83
37078;BME280;22989;55.998;37.212;2023-02-12T04:06:52;-11298.94;;;-145.39;62.14
37078;BME280;22989;55.998;37.212;2023-02-12T04:09:21;-11298.94;;;-145.39;62.18
37078;BME280;22989;55.998;37.212;2023-02-12T04:12:30;-11298.94;;;-145.39;62.02
37078;BME280;22989;55.998;37.212;2023-02-12T04:17:49;-11298.94;;;-145.39;61.91
37078;BME280;22989;55.998;37.212;2023-02-12T04:20:53;-11298.94;;;-145.39;61.77
37078;BME280;22989;55.998;37.212;2023-02-12T04:23:43;-11298.94;;;-145.39;61.68
37078;BME280;22989;55.998;37.212;2023-02-12T04:31:40;-11298.94;;;-145.39;61.61
37078;BME280;22989;55.998;37.212;2023-02-12T04:36:55;-11298.94;;;-145.39;61.63
37078;BME280;22989;55.998;37.212;2023-02-12T04:39:24;-11298.94;;;-145.39;61.24
37078;BME280;22989;55.998;37.212;2023-02-12T04:41:51;-11298.94;;;-145.39;61.25
37078;BME280;22989;55.998;37.212;2023-02-12T04:44:24;-11298.94;;;-145.39;61.14
37078;BME280;22989;55.998;37.212;2023-02-12T04:46:50;-11298.94;;;-145.39;61.20
37078;BME280;22989;55.998;37.212;2023-02-12T04:49:18;-11298.94;;;-145.39;60.88
37078;BME280;22989;55.998;37.212;2023-02-12T04:51:45;-11298.94;;;-145.39;60.83
37078;BME280;22989;55.998;37.212;2023-02-12T04:54:11;-11298.94;;;-145.39;60.75
37078;BME280;22989;55.998;37.212;2023-02-12T04:56:37;-11298.94;;;-145.39;60.65
37078;BME280;22989;55.998;37.212;2023-02-12T04:59:03;-11298.94;;;-145.39;60.54
37078;BME280;22989;55.998;37.212;2023-02-12T05:01:32;-11298.94;;;-145.39;60.40
37078;BME280;22989;55.998;37.212;2023-02-12T05:03:58;-11298.94;;;-145.39;60.21
37078;BME280;22989;55.998;37.212;2023-02-12T05:06:23;-11298.94;;;-145.39;60.28
37078;BME280;22989;55.998;37.212;2023-02-12T05:08:52;-11298.94;;;-145.39;59.91
37078;BME280;22989;55.998;37.212;2023-02-12T05:11:17;-11298.94;;;-145.39;59.79
37078;BME280;22989;55.998;37.212;2023-02-12T05:13:43;-11298.94;;;-145.39;59.73
37078;BME280;22989;55.998;37.212;2023-02-12T05:16:12;-11298.94;;;-145.39;59.50
37078;BME280;22989;55.998;37.212;2023-02-12T05:18:37;-11298.94;;;-145.39;59.85
37078;BME280;22989;55.998;37.212;2023-02-12T05:21:03;-11298.94;;;-145.39;59.47
37078;BME280;22989;55.998;37.212;2023-02-12T05:23:32;-11298.94;;;-145.39;59.45
37078;BME280;22989;55.998;37.212;2023-02-12T05:25:59;-11298.94;;;-145.39;59.25
37078;BME280;22989;55.998;37.212;2023-02-12T05:28:25;-11298.94;;;-145.39;59.11
37078;BME280;22989;55.998;37.212;2023-02-12T05:30:51;-11298.94;;;-145.39;58.98
37078;BME280;22989;55.998;37.212;2023-02-12T05:33:16;-11298.94;;;-145.39;58.68
37078;BME280;22989;55.998;37.212;2023-02-12T05:35:42;-11298.94;;;-145.39;58.54
37078;BME280;22989;55.998;37.212;2023-02-12T05:38:08;-11298.94;;;-145.39;58.72
37078;BME280;22989;55.998;37.212;2023-02-12T05:40:34;-11298.94;;;-145.39;58.84
37078;BME280;22989;55.998;37.212;2023-02-12T05:43:00;-11298.94;;;-145.39;nan
37078;BME280;22989;55.998;37.212;2023-02-12T05:45:25;-11298.94;;;-145.39;58.65
37078;BME280;22989;55.998;37.212;2023-02-12T05:47:55;-11298.94;;;-145.39;58.63
37078;BME280;22989;55.998;37.212;2023-02-12T05:50:21;-11298.94;;;-145.39;58.79
37078;BME280;22989;55.998;37.212;2023-02-12T05:52:58;-11298.94;;;-145.39;58.38
37078;BME280;22989;55.998;37.212;2023-02-12T05:55:24;-11298.94;;;-145.39;58.50
37078;BME280;22989;55.998;37.212;2023-02-12T05:57:50;-11298.94;;;-145.39;58.36
37078;BME280;22989;55.998;37.212;2023-02-12T06:00:15;-11298.94;;;-145.39;58.17
37078;BME280;22989;55.998;37.212;2023-02-12T06:02:41;-11298.94;;;-145.39;58.20
37078;BME280;22989;55.998;37.212;2023-02-12T06:05:07;-11298.94;;;-145.39;58.07
37078;BME280;22989;55.998;37.212;2023-02-12T06:07:33;-11298.94;;;-145.39;58.19
37078;BME280;22989;55.998;37.212;2023-02-12T06:09:58;-11298.94;;;-145.39;58.18
37078;BME280;22989;55.998;37.212;2023-02-12T06:12:24;-11298.94;;;-145.39;57.73
37078;BME280;22989;55.998;37.212;2023-02-12T06:14:50;-11298.94;;;-145.39;58.05
37078;BME280;22989;55.998;37.212;2023-02-12T06:17:15;-11298.94;;;-145.39;57.83
37078;BME280;22989;55.998;37.212;2023-02-12T06:19:41;-11298.94;;;-145.39;57.77
37078;BME280;22989;55.998;37.212;2023-02-12T06:22:06;-11298.94;;;-145.39;57.69
37078;BME280;22989;55.998;37.212;2023-02-12T06:24:32;-11298.94;;;-145.39;57.35
37078;BME280;22989;55.998;37.212;2023-02-12T06:26:58;-11298.94;;;-145.39;57.19
37078;BME280;22989;55.998;37.212;2023-02-12T06:29:23;-11298.94;;;-145.39;57.22
37078;BME280;22989;55.998;37.212;2023-02-12T06:31:49;-11298.94;;;-145.39;57.11
37078;BME280;22989;55.998;37.212;2023-02-12T06:34:15;-11298.94;;;-145.39;56.69
37078;BME280;22989;55.998;37.212;2023-02-12T06:36:45;-11298.94;;;-145.39;56.84
37078;BME280;22989;55.998;37.212;2023-02-12T06:39:14;-11298.94;;;-145.39;56.78
37078;BME280;22989;55.998;37.212;2023-02-12T06:41:40;-11298.94;;;-145.39;56.54
37078;BME280;22989;55.998;37.212;2023-02-12T06:44:07;-11298.94;;;-145.39;56.79
37078;BME280;22989;55.998;37.212;2023-02-12T06:46:33;-11298.94;;;-145.39;56.19
37078;BME280;22989;55.998;37.212;2023-02-12T06:48:59;-11298.94;;;-145.39;55.93
37078;BME280;22989;55.998;37.212;2023-02-12T06:51:27;-11298.94;;;-145.39;55.99
37078;BME280;22989;55.998;37.212;2023-02-12T06:53:54;-11298.94;;;-145.39;55.45
37078;BME280;22989;55.998;37.212;2023-02-12T06:56:21;-11298.94;;;-145.39;55.62
37078;BME280;22989;55.998;37.212;2023-02-12T06:58:52;-11298.94;;;-145.39;55.86
37078;BME280;22989;55.998;37.212;2023-02-12T07:01:21;-11298.94;;;-145.39;55.33
37078;BME280;22989;55.998;37.212;2023-02-12T07:03:49;-11298.94;;;-145.39;55.20
37078;BME280;22989;55.998;37.212;2023-02-12T07:06:15;-11298.94;;;-145.39;55.25
37078;BME280;22989;55.998;37.212;2023-02-12T07:08:41;-11298.94;;;-145.39;54.93
37078;BME280;22989;55.998;37.212;2023-02-12T07:11:07;-11298.94;;;-145.39;54.88
37078;BME280;22989;55.998;37.212;2023-02-12T07:13:33;-11298.94;;;-145.39;54.61
37078;BME280;22989;55.998;37.212;2023-02-12T07:16:06;-11298.94;;;-145.39;54.81
37078;BME280;22989;55.998;37.212;2023-02-12T07:18:33;-11298.94;;;-145.39;54.71
37078;BME280;22989;55.998;37.212;2023-02-12T07:20:59;-11298.94;;;-145.39;54.21
37078;BME280;22989;55.998;37.212;2023-02-12T07:23:25;-11298.94;;;-145.39;53.64
37078;BME280;22989;55.998;37.212;2023-02-12T07:25:59;-11298.94;;;-145.39;53.05
37078;BME280;22989;55.998;37.212;2023-02-12T07:28:25;-11298.94;;;-145.39;52.88
37078;BME280;22989;55.998;37.212;2023-02-12T07:30:51;-11298.94;;;-145.39;53.13
37078;BME280;22989;55.998;37.212;2023-02-12T07:33:17;-11298.94;;;-145.39;52.74
37078;BME280;22989;55.998;37.212;2023-02-12T07:35:43;-11298.94;;;-145.39;52.19
37078;BME280;22989;55.998;37.212;2023-02-12T07:38:09;-11298.94;;;-145.39;52.16
37078;BME280;22989;55.998;37.212;2023-02-12T07:40:35;-11298.94;;;-145.39;53.05
37078;BME280;22989;55.998;37.212;2023-02-12T07:43:00;-11298.94;;;-145.39;51.54
37078;BME280;22989;55.998;37.212;2023-02-12T07:45:26;-11298.94;;;-145.39;51.65
37078;BME280;22989;55.998;37.212;2023-02-12T07:47:51;-11298.94;;;-145.39;52.25
37078;BME280;22989;55.998;37.212;2023-02-12T07:50:17;-11298.94;;;-145.39;51.98
37078;BME280;22989;55.998;37.212;2023-02-12T07:52:43;-11298.94;;;-145.39;51.90
37078;BME280;22989;55.998;37.212;2023-02-12T07:55:09;-11298.94;;;-145.39;51.77
37078;BME280;22989;55.998;37.212;2023-02-12T07:57:35;-11298.94;;;-145.39;51.78
37078;BME280;22989;55.998;37.212;2023-02-12T08:00:03;-11298.94;;;-145.39;51.19
37078;BME280;22989;55.998;37.212;2023-02-12T08:02:37;-11298.94;;;-145.39;51.68
37078;BME280;22989;55.998;37.212;2023-02-12T08:05:03;-11298.94;;;-145.39;51.49
37078;BME280;22989;55.998;37.212;2023-02-12T08:07:28;-11298.94;;;-145.39;51.44
37078;BME280;22989;55.998;37.212;2023-02-12T08:09:54;-11298.94;;;-145.39;51.56
37078;BME280;22989;55.998;37.212;2023-02-12T08:12:20;-11298.94;;;-145.39;51.32
37078;BME280;22989;55.998;37.212;2023-02-12T08:14:45;-11298.94;;;-145.39;51.17
37078;BME280;22989;55.998;37.212;2023-02-12T08:17:11;-11298.94;;;-145.39;51.00
37078;BME280;22989;55.998;37.212;2023-02-12T08:19:36;-11298.94;;;-145.39;51.22
37078;BME280;22989;55.998;37.212;2023-02-12T08:22:02;-11298.94;;;-145.39;50.94
37078;BME280;22989;55.998;37.212;2023-02-12T08:24:29;-11298.94;;;-145.39;50.77
37078;BME280;22989;55.998;37.212;2023-02-12T08:26:55;-11298.94;;;-145.39;50.55
37078;BME280;22989;55.998;37.212;2023-02-12T08:29:23;-11298.94;;;-145.39;50.34
37078;BME280;22989;55.998;37.212;2023-02-12T08:31:54;-11298.94;;;-145.39;50.68
37078;BME280;22989;55.998;37.212;2023-02-12T08:34:22;-11298.94;;;-145.39;50.78
37078;BME280;22989;55.998;37.212;2023-02-12T08:36:50;-11298.94;;;-145.39;51.60
37078;BME280;22989;55.998;37.212;2023-02-12T08:39:17;-11298.94;;;-145.39;51.03
37078;BME280;22989;55.998;37.212;2023-02-12T08:41:43;-11298.94;;;-145.39;51.61
37078;BME280;22989;55.998;37.212;2023-02-12T08:44:10;-11298.94;;;-145.39;51.33
37078;BME280;22989;55.998;37.212;2023-02-12T08:46:42;-11298.94;;;-145.39;51.16
37078;BME280;22989;55.998;37.212;2023-02-12T08:49:12;-11298.94;;;-145.39;50.51
37078;BME280;22989;55.998;37.212;2023-02-12T08:51:41;-11298.94;;;-145.39;50.95
37078;BME280;22989;55.998;37.212;2023-02-12T08:54:10;-11298.94;;;-145.39;50.60
37078;BME280;22989;55.998;37.212;2023-02-12T08:56:37;-11298.94;;;-145.39;50.29
37078;BME280;22989;55.998;37.212;2023-02-12T08:59:04;-11298.94;;;-145.39;50.57
37078;BME280;22989;55.998;37.212;2023-02-12T09:01:32;-11298.94;;;-145.39;50.51
37078;BME280;22989;55.998;37.212;2023-02-12T09:03:58;-11298.94;;;-145.39;50.72
37078;BME280;22989;55.998;37.212;2023-02-12T09:06:25;-11298.94;;;-145.39;50.46
37078;BME280;22989;55.998;37.212;2023-02-12T09:08:52;-11298.94;;;-145.39;50.38
37078;BME280;22989;55.998;37.212;2023-02-12T09:11:22;-11298.94;;;-145.39;50.03
37078;BME280;22989;55.998;37.212;2023-02-12T09:13:51;-11298.94;;;-145.39;49.61
37078;BME280;22989;55.998;37.212;2023-02-12T09:16:17;-11298.94;;;-145.39;49.50
37078;BME280;22989;55.998;37.212;2023-02-12T09:18:43;-11298.94;;;-145.39;49.87
37078;BME280;22989;55.998;37.212;2023-02-12T09:21:14;-11298.94;;;-145.39;50.24
37078;BME280;22989;55.998;37.212;2023-02-12T09:23:42;-11298.94;;;-145.39;49.93
37078;BME280;22989;55.998;37.212;2023-02-12T09:26:14;-11298.94;;;-145.39;49.93
37078;BME280;22989;55.998;37.212;2023-02-12T09:28:40;-11298.94;;;-145.39;49.80
37078;BME280;22989;55.998;37.212;2023-02-12T09:31:08;-11298.94;;;-145.39;50.27
37078;BME280;22989;55.998;37.212;2023-02-12T09:33:34;-11298.94;;;-145.39;50.21
37078;BME280;22989;55.998;37.212;2023-02-12T09:36:02;-11298.94;;;-145.39;50.02
37078;BME280;22989;55.998;37.212;2023-02-12T09:38:28;-11298.94;;;-145.39;49.61
37078;BME280;22989;55.998;37.212;2023-02-12T09:46:29;-11298.94;;;-145.39;49.72
37078;BME280;22989;55.998;37.212;2023-02-12T09:49:14;-11298.94;;;-145.39;49.26
37078;BME280;22989;55.998;37.212;2023-02-12T09:51:44;-11298.94;;;-145.39;49.29
37078;BME280;22989;55.998;37.212;2023-02-12T09:54:16;-11298.94;;;-145.39;49.33
37078;BME280;22989;55.998;37.212;2023-02-12T09:56:49;-11298.94;;;-145.39;49.42
37078;BME280;22989;55.998;37.212;2023-02-12T09:59:39;-11298.94;;;-145.39;49.62
37078;BME280;22989;55.998;37.212;2023-02-12T10:02:13;-11298.94;;;-145.39;50.24
37078;BME280;22989;55.998;37.212;2023-02-12T10:04:41;-11298.94;;;-145.39;50.00
37078;BME280;22989;55.998;37.212;2023-02-12T10:12:49;-11298.94;;;-145.39;50.02
37078;BME280;22989;55.998;37.212;2023-02-12T10:26:28;-11298.94;;;-145.39;49.59
37078;BME280;22989;55.998;37.212;2023-02-12T10:28:57;-11298.94;;;-145.39;48.93
37078;BME280;22989;55.998;37.212;2023-02-12T10:31:31;-11298.94;;;-145.39;49.04
37078;BME280;22989;55.998;37.212;2023-02-12T10:33:59;-11298.94;;;-145.39;49.25
37078;BME280;22989;55.998;37.212;2023-02-12T10:37:20;-11298.94;;;-145.39;48.57
37078;BME280;22989;55.998;37.212;2023-02-12T10:39:52;-11298.94;;;-145.39;48.73
37078;BME280;22989;55.998;37.212;2023-02-12T10:42:37;-11298.94;;;-145.39;48.07
37078;BME280;22989;55.998;37.212;2023-02-12T10:45:04;-11298.94;;;-145.39;48.55
37078;BME280;22989;55.998;37.212;2023-02-12T10:47:30;-11298.94;;;-145.39;48.35
37078;BME280;22989;55.998;37.212;2023-02-12T10:49:59;-11298.94;;;-145.39;49.12
37078;BME280;22989;55.998;37.212;2023-02-12T10:52:47;-11298.94;;;-145.39;49.31
37078;BME280;22989;55.998;37.212;2023-02-12T10:55:24;-11298.94;;;-145.39;49.44
37078;BME280;22989;55.998;37.212;2023-02-12T10:57:51;-11298.94;;;-145.39;49.19
37078;BME280;22989;55.998;37.212;2023-02-12T11:00:33;-11298.94;;;-145.39;48.94
37078;BME280;22989;55.998;37.212;2023-02-12T11:05:41;-11298.94;;;-145.39;49.13
37078;BME280;22989;55.998;37.212;2023-02-12T11:08:33;-11298.94;;;-145.39;49.16
37078;BME280;22989;55.998;37.212;2023-02-12T11:11:15;-11298.94;;;-145.39;49.17
37078;BME280;22989;55.998;37.212;2023-02-12T11:13:47;-11298.94;;;-145.39;49.37
37078;BME280;22989;55.998;37.212;2023-02-12T11:16:37;-11298.94;;;-145.39;48.66
37078;BME280;22989;55.998;37.212;2023-02-12T11:19:19;-11298.94;;;-145.39;48.70
37078;BME280;22989;55.998;37.212;2023-02-12T11:21:45;-11298.94;;;-145.39;48.85
37078;BME280;22989;55.998;37.212;2023-02-12T11:24:29;-11298.94;;;-145.39;48.85
37078;BME280;22989;55.998;37.212;2023-02-12T11:27:12;-11298.94;;;-145.39;48.87
37078;BME280;22989;55.998;37.212;2023-02-12T11:29:38;-11298.94;;;-145.39;48.79
37078;BME280;22989;55.998;37.212;2023-02-12T11:32:08;-11298.94;;;-145.39;48.34
37078;BME280;22989;55.998;37.212;2023-02-12T11:34:39;-11298.94;;;-145.39;48.06
37078;BME280;22989;55.998;37.212;2023-02-12T11:37:14;-11298.94;;;-145.39;47.92
37078;BME280;22989;55.998;37.212;2023-02-12T11:39:45;-11298.94;;;-145.39;48.11
37078;BME280;22989;55.998;37.212;2023-02-12T11:42:21;-11298.94;;;-145.39;48.08
37078;BME280;22989;55.998;37.212;2023-02-12T11:44:57;-11298.94;;;-145.39;47.99
37078;BME280;22989;55.998;37.212;2023-02-12T11:47:34;-11298.94;;;-145.39;47.71
37078;BME280;22989;55.998;37.212;2023-02-12T11:52:53;-11298.94;;;-145.39;48.07
37078;BME280;22989;55.998;37.212;2023-02-12T11:55:23;-11298.94;;;-145.39;48.27
37078;BME280;22989;55.998;37.212;2023-02-12T11:57:54;-11298.94;;;-145.39;48.31
37078;BME280;22989;55.998;37.212;2023-02-12T12:00:44;-11298.94;;;-145.39;48.32
37078;BME280;22989;55.998;37.212;2023-02-12T12:03:37;-11298.94;;;-145.39;48.71
37078;BME280;22989;55.998;37.212;2023-02-12T12:08:42;-11298.94;;;-145.39;49.17
37078;BME280;22989;55.998;37.212;2023-02-12T12:11:14;-11298.94;;;-145.39;49.36
37078;BME280;22989;55.998;37.212;2023-02-12T12:13:53;-11298.94;;;-145.39;49.29
37078;BME280;22989;55.998;37.212;2023-02-12T12:16:29;-11298.94;;;-145.39;49.39
37078;BME280;22989;55.998;37.212;2023-02-12T12:19:20;-11298.94;;;-145.39;49.71
37078;BME280;22989;55.998;37.212;2023-02-12T12:22:21;-11298.94;;;-145.39;49.71
37078;BME280;22989;55.998;37.212;2023-02-12T12:32:54;-11298.94;;;-145.39;49.40
37078;BME280;22989;55.998;37.212;2023-02-12T12:35:44;-11298.94;;;-145.39;49.19
37078;BME280;22989;55.998;37.212;2023-02-12T12:58:17;-11298.94;;;-145.39;50.90
37078;BME280;22989;55.998;37.212;2023-02-12T13:20:55;-11298.94;;;-145.39;51.55
37078;BME280;22989;55.998;37.212;2023-02-12T13:28:46;-11298.94;;;-145.39;51.73
37078;BME280;22989;55.998;37.212;2023-02-12T13:31:18;-11298.94;;;-145.39;52.18
37078;BME280;22989;55.998;37.212;2023-02-12T13:33:49;-11298.94;;;-145.39;51.85
37078;BME280;22989;55.998;37.212;2023-02-12T13:36:17;-11298.94;;;-145.39;51.82
37078;BME280;22989;55.998;37.212;2023-02-12T13:38:51;-11298.94;;;-145.39;52.27
37078;BME280;22989;55.998;37.212;2023-02-12T13:41:20;-11298.94;;;-145.39;52.07
37078;BME280;22989;55.998;37.212;2023-02-12T13:44:13;-11298.94;;;-145.39;52.36
37078;BME280;22989;55.998;37.212;2023-02-12T13:52:27;-11298.94;;;-145.39;52.96
37078;BME280;22989;55.998;37.212;2023-02-12T13:55:09;-11298.94;;;-145.39;53.25
37078;BME280;22989;55.998;37.212;2023-02-12T13:57:38;-11298.94;;;-145.39;53.09
37078;BME280;22989;55.998;37.212;2023-02-12T14:00:04;-11298.94;;;-145.39;53.28
37078;BME280;22989;55.998;37.212;2023-02-12T14:05:03;-11298.94;;;-145.39;53.77
37078;BME280;22989;55.998;37.212;2023-02-12T14:10:32;-11298.94;;;-145.39;53.83
37078;BME280;22989;55.998;37.212;2023-02-12T14:13:19;-11298.94;;;-145.39;53.83
37078;BME280;22989;55.998;37.212;2023-02-12T14:15:53;-11298.94;;;-145.39;53.87
37078;BME280;22989;55.998;37.212;2023-02-12T14:18:32;-11298.94;;;-145.39;54.15
37078;BME280;22989;55.998;37.212;2023-02-12T14:23:34;-11298.94;;;-145.39;54.69
37078;BME280;22989;55.998;37.212;2023-02-12T14:28:56;-11298.94;;;-145.39;55.10
37078;BME280;22989;55.998;37.212;2023-02-12T14:36:46;-11298.94;;;-145.39;55.56
37078;BME280;22989;55.998;37.212;2023-02-12T14:41:49;-11298.94;;;-145.39;55.80
37078;BME280;22989;55.998;37.212;2023-02-12T14:46:47;-11298.94;;;-145.39;55.97
37078;BME280;22989;55.998;37.212;2023-02-12T14:57:33;-11298.94;;;-145.39;56.27
37078;BME280;22989;55.998;37.212;2023-02-12T15:02:54;-11298.94;;;-145.39;56.29
37078;BME280;22989;55.998;37.212;2023-02-12T15:05:31;-11298.94;;;-145.39;56.34
37078;BME280;22989;55.998;37.212;2023-02-12T15:08:06;-11298.94;;;-145.39;56.45
37078;BME280;22989;55.998;37.212;2023-02-12T15:10:39;-11298.94;;;-145.39;56.22
37078;BME280;22989;55.998;37.212;2023-02-12T15:13:25;-11298.94;;;-145.39;56.26
37078;BME280;22989;55.998;37.212;2023-02-12T15:16:06;-11298.94;;;-145.39;56.49
37078;BME280;22989;55.998;37.212;2023-02-12T15:21:25;-11298.94;;;-145.39;56.46
37078;BME280;22989;55.998;37.212;2023-02-12T15:24:07;-11298.94;;;-145.39;56.75
37078;BME280;22989;55.998;37.212;2023-02-12T15:26:43;-11298.94;;;-145.39;56.71
37078;BME280;22989;55.998;37.212;2023-02-12T15:29:40;-11298.94;;;-145.39;56.63
37078;BME280;22989;55.998;37.212;2023-02-12T15:32:08;-11298.94;;;-145.39;56.54